sensor_id;sensor_type;location;lat;lon;timestamp;P1;durP1;ratioP1;P2;durP2;ratioP2
85118;SDS011;75469;47.654;10.494;2024-01-10T00:01:17;22.65;;;11.30;;
85118;SDS011;75469;47.654;10.494;2024-01-10T00:03:43;25.17;;;10.75;;
85118;SDS011;75469;47.654;10.494;2024-01-10T00:06:12;29.42;;;10.00;;
85118;SDS011;75469;47.654;10.494;2024-01-10T00:08:38;28.88;;;10.73;;
85118;SDS011;75469;47.654;10.494;2024-01-10T00:11:03;24.92;;;10.10;;
85118;SDS011;75469;47.654;10.494;2024-01-10T00:13:31;27.60;;;10.95;;
85118;SDS011;75469;47.654;10.494;2024-01-10T00:15:57;24.65;;;10.98;;
85118;SDS011;75469;47.654;10.494;2024-01-10T00:18:24;30.27;;;12.45;;
85118;SDS011;75469;47.654;10.494;2024-01-10T00:20:51;26.05;;;11.35;;
85118;SDS011;75469;47.654;10.494;2024-01-10T00:23:19;26.52;;;10.52;;
85118;SDS011;75469;47.654;10.494;2024-01-10T00:25:45;26.50;;;10.05;;
85118;SDS011;75469;47.654;10.494;2024-01-10T00:28:11;27.50;;;10.13;;
85118;SDS011;75469;47.654;10.494;2024-01-10T00:30:37;30.08;;;11.90;;
85118;SDS011;75469;47.654;10.494;2024-01-10T00:33:03;26.83;;;10.85;;
85118;SDS011;75469;47.654;10.494;2024-01-10T00:35:29;30.08;;;11.40;;
85118;SDS011;75469;47.654;10.494;2024-01-10T00:37:54;28.08;;;10.85;;
85118;SDS011;75469;47.654;10.494;2024-01-10T00:40:20;29.85;;;10.35;;
85118;SDS011;75469;47.654;10.494;2024-01-10T00:42:45;27.23;;;10.40;;
85118;SDS011;75469;47.654;10.494;2024-01-10T00:45:11;29.98;;;12.82;;
85118;SDS011;75469;47.654;10.494;2024-01-10T00:47:36;33.55;;;11.13;;
85118;SDS011;75469;47.654;10.494;2024-01-10T00:50:02;25.33;;;10.27;;
85118;SDS011;75469;47.654;10.494;2024-01-10T00:52:28;27.02;;;11.10;;
85118;SDS011;75469;47.654;10.494;2024-01-10T00:54:53;32.83;;;11.93;;
85118;SDS011;75469;47.654;10.494;2024-01-10T00:57:18;27.20;;;11.40;;
85118;SDS011;75469;47.654;10.494;2024-01-10T00:59:44;30.52;;;11.60;;
85118;SDS011;75469;47.654;10.494;2024-01-10T01:02:09;24.27;;;9.77;;
85118;SDS011;75469;47.654;10.494;2024-01-10T01:04:35;24.35;;;9.73;;
85118;SDS011;75469;47.654;10.494;2024-01-10T01:07:00;23.10;;;9.70;;
85118;SDS011;75469;47.654;10.494;2024-01-10T01:09:26;21.63;;;9.13;;
85118;SDS011;75469;47.654;10.494;2024-01-10T01:11:51;25.63;;;10.55;;
85118;SDS011;75469;47.654;10.494;2024-01-10T01:14:17;25.27;;;10.30;;
85118;SDS011;75469;47.654;10.494;2024-01-10T01:16:43;26.80;;;10.85;;
85118;SDS011;75469;47.654;10.494;2024-01-10T01:19:08;22.80;;;10.05;;
85118;SDS011;75469;47.654;10.494;2024-01-10T01:21:34;29.75;;;10.95;;
85118;SDS011;75469;47.654;10.494;2024-01-10T01:23:59;25.23;;;10.40;;
85118;SDS011;75469;47.654;10.494;2024-01-10T01:26:25;28.73;;;11.13;;
85118;SDS011;75469;47.654;10.494;2024-01-10T01:28:50;28.05;;;11.43;;
85118;SDS011;75469;47.654;10.494;2024-01-10T01:31:16;24.10;;;9.77;;
85118;SDS011;75469;47.654;10.494;2024-01-10T01:33:41;22.90;;;9.52;;
85118;SDS011;75469;47.654;10.494;2024-01-10T01:36:07;22.02;;;10.18;;
85118;SDS011;75469;47.654;10.494;2024-01-10T01:38:32;28.30;;;9.93;;
85118;SDS011;75469;47.654;10.494;2024-01-10T01:40:58;27.55;;;10.52;;
85118;SDS011;75469;47.654;10.494;2024-01-10T01:43:24;27.58;;;10.63;;
85118;SDS011;75469;47.654;10.494;2024-01-10T01:45:51;28.63;;;10.60;;
85118;SDS011;75469;47.654;10.494;2024-01-10T01:48:22;27.80;;;10.88;;
85118;SDS011;75469;47.654;10.494;2024-01-10T01:50:50;26.60;;;9.52;;
85118;SDS011;75469;47.654;10.494;2024-01-10T01:53:19;25.25;;;10.77;;
85118;SDS011;75469;47.654;10.494;2024-01-10T01:55:45;25.65;;;9.48;;
85118;SDS011;75469;47.654;10.494;2024-01-10T01:58:11;28.13;;;11.00;;
85118;SDS011;75469;47.654;10.494;2024-01-10T02:00:38;27.63;;;10.85;;
85118;SDS011;75469;47.654;10.494;2024-01-10T02:03:04;26.42;;;10.27;;
85118;SDS011;75469;47.654;10.494;2024-01-10T02:05:31;24.85;;;10.48;;
85118;SDS011;75469;47.654;10.494;2024-01-10T02:07:57;29.17;;;10.20;;
85118;SDS011;75469;47.654;10.494;2024-01-10T02:10:23;24.80;;;10.30;;
85118;SDS011;75469;47.654;10.494;2024-01-10T02:12:48;23.40;;;9.70;;
85118;SDS011;75469;47.654;10.494;2024-01-10T02:15:14;26.00;;;9.82;;
85118;SDS011;75469;47.654;10.494;2024-01-10T02:17:40;27.17;;;11.13;;
85118;SDS011;75469;47.654;10.494;2024-01-10T02:20:13;23.10;;;10.85;;
85118;SDS011;75469;47.654;10.494;2024-01-10T02:22:41;24.70;;;9.75;;
85118;SDS011;75469;47.654;10.494;2024-01-10T02:25:08;24.85;;;9.95;;
85118;SDS011;75469;47.654;10.494;2024-01-10T02:27:37;24.58;;;10.30;;
85118;SDS011;75469;47.654;10.494;2024-01-10T02:30:03;29.55;;;10.20;;
85118;SDS011;75469;47.654;10.494;2024-01-10T02:32:30;23.27;;;9.60;;
85118;SDS011;75469;47.654;10.494;2024-01-10T02:34:56;27.25;;;10.60;;
85118;SDS011;75469;47.654;10.494;2024-01-10T02:37:22;24.98;;;9.73;;
85118;SDS011;75469;47.654;10.494;2024-01-10T02:39:47;23.75;;;9.35;;
85118;SDS011;75469;47.654;10.494;2024-01-10T02:42:13;25.38;;;10.02;;
85118;SDS011;75469;47.654;10.494;2024-01-10T02:44:38;23.55;;;9.45;;
85118;SDS011;75469;47.654;10.494;2024-01-10T02:47:05;24.83;;;11.20;;
85118;SDS011;75469;47.654;10.494;2024-01-10T02:49:31;23.23;;;10.48;;
85118;SDS011;75469;47.654;10.494;2024-01-10T02:51:56;27.55;;;11.18;;
85118;SDS011;75469;47.654;10.494;2024-01-10T02:54:22;24.00;;;10.82;;
85118;SDS011;75469;47.654;10.494;2024-01-10T02:56:47;33.05;;;10.73;;
85118;SDS011;75469;47.654;10.494;2024-01-10T02:59:13;24.08;;;10.00;;
85118;SDS011;75469;47.654;10.494;2024-01-10T03:01:38;25.58;;;10.50;;
85118;SDS011;75469;47.654;10.494;2024-01-10T03:04:04;21.75;;;9.23;;
85118;SDS011;75469;47.654;10.494;2024-01-10T03:06:29;26.30;;;10.10;;
85118;SDS011;75469;47.654;10.494;2024-01-10T03:08:55;25.05;;;10.15;;
85118;SDS011;75469;47.654;10.494;2024-01-10T03:11:21;23.05;;;10.13;;
85118;SDS011;75469;47.654;10.494;2024-01-10T03:13:47;22.00;;;9.68;;
85118;SDS011;75469;47.654;10.494;2024-01-10T03:16:13;23.50;;;9.82;;
85118;SDS011;75469;47.654;10.494;2024-01-10T03:18:39;33.55;;;11.38;;
85118;SDS011;75469;47.654;10.494;2024-01-10T03:21:04;23.35;;;9.95;;
85118;SDS011;75469;47.654;10.494;2024-01-10T03:23:30;23.38;;;9.70;;
85118;SDS011;75469;47.654;10.494;2024-01-10T03:25:56;23.95;;;9.85;;
85118;SDS011;75469;47.654;10.494;2024-01-10T03:28:22;25.08;;;9.63;;
85118;SDS011;75469;47.654;10.494;2024-01-10T03:30:48;22.63;;;9.48;;
85118;SDS011;75469;47.654;10.494;2024-01-10T03:33:14;25.60;;;10.20;;
85118;SDS011;75469;47.654;10.494;2024-01-10T03:35:41;22.83;;;9.85;;
85118;SDS011;75469;47.654;10.494;2024-01-10T03:38:07;24.58;;;9.82;;
85118;SDS011;75469;47.654;10.494;2024-01-10T03:40:33;24.00;;;9.77;;
85118;SDS011;75469;47.654;10.494;2024-01-10T03:42:59;23.65;;;9.73;;
85118;SDS011;75469;47.654;10.494;2024-01-10T03:45:25;22.30;;;10.00;;
85118;SDS011;75469;47.654;10.494;2024-01-10T03:47:50;23.77;;;9.60;;
85118;SDS011;75469;47.654;10.494;2024-01-10T03:50:19;22.40;;;10.18;;
85118;SDS011;75469;47.654;10.494;2024-01-10T03:52:45;27.10;;;10.50;;
85118;SDS011;75469;47.654;10.494;2024-01-10T03:55:11;19.45;;;8.93;;
85118;SDS011;75469;47.654;10.494;2024-01-10T03:57:41;22.45;;;9.68;;
85118;SDS011;75469;47.654;10.494;2024-01-10T04:00:07;20.25;;;8.13;;
85118;SDS011;75469;47.654;10.494;2024-01-10T04:02:36;21.05;;;9.15;;
85118;SDS011;75469;47.654;10.494;2024-01-10T04:05:07;21.85;;;8.93;;
85118;SDS011;75469;47.654;10.494;2024-01-10T04:07:34;18.38;;;8.38;;
85118;SDS011;75469;47.654;10.494;2024-01-10T04:10:01;18.38;;;8.07;;
85118;SDS011;75469;47.654;10.494;2024-01-10T04:12:27;22.45;;;9.13;;
85118;SDS011;75469;47.654;10.494;2024-01-10T04:14:53;24.55;;;10.07;;
85118;SDS011;75469;47.654;10.494;2024-01-10T04:17:18;26.27;;;9.85;;
85118;SDS011;75469;47.654;10.494;2024-01-10T04:19:44;22.30;;;9.38;;
85118;SDS011;75469;47.654;10.494;2024-01-10T04:22:09;22.25;;;8.75;;
85118;SDS011;75469;47.654;10.494;2024-01-10T04:24:35;23.73;;;9.38;;
85118;SDS011;75469;47.654;10.494;2024-01-10T04:27:00;23.10;;;9.18;;
85118;SDS011;75469;47.654;10.494;2024-01-10T04:29:26;22.00;;;9.48;;
85118;SDS011;75469;47.654;10.494;2024-01-10T04:31:51;22.88;;;8.80;;
85118;SDS011;75469;47.654;10.494;2024-01-10T04:34:17;21.02;;;9.40;;
85118;SDS011;75469;47.654;10.494;2024-01-10T04:36:43;20.08;;;8.68;;
85118;SDS011;75469;47.654;10.494;2024-01-10T04:39:08;25.45;;;9.98;;
85118;SDS011;75469;47.654;10.494;2024-01-10T04:41:34;19.05;;;7.93;;
85118;SDS011;75469;47.654;10.494;2024-01-10T04:44:00;21.33;;;8.85;;
85118;SDS011;75469;47.654;10.494;2024-01-10T04:46:25;19.65;;;8.55;;
85118;SDS011;75469;47.654;10.494;2024-01-10T04:48:51;24.42;;;9.35;;
85118;SDS011;75469;47.654;10.494;2024-01-10T04:51:16;19.92;;;8.80;;
85118;SDS011;75469;47.654;10.494;2024-01-10T04:53:42;22.08;;;8.90;;
85118;SDS011;75469;47.654;10.494;2024-01-10T04:56:07;19.42;;;8.35;;
85118;SDS011;75469;47.654;10.494;2024-01-10T04:58:33;21.17;;;8.35;;
85118;SDS011;75469;47.654;10.494;2024-01-10T05:00:59;21.83;;;9.13;;
85118;SDS011;75469;47.654;10.494;2024-01-10T05:03:25;24.27;;;8.75;;
85118;SDS011;75469;47.654;10.494;2024-01-10T05:05:50;25.17;;;9.07;;
85118;SDS011;75469;47.654;10.494;2024-01-10T05:08:16;19.40;;;8.48;;
85118;SDS011;75469;47.654;10.494;2024-01-10T05:10:45;20.73;;;8.07;;
85118;SDS011;75469;47.654;10.494;2024-01-10T05:13:11;18.88;;;9.05;;
85118;SDS011;75469;47.654;10.494;2024-01-10T05:15:37;23.27;;;9.48;;
85118;SDS011;75469;47.654;10.494;2024-01-10T05:18:03;21.02;;;7.75;;
85118;SDS011;75469;47.654;10.494;2024-01-10T05:20:29;25.80;;;8.15;;
85118;SDS011;75469;47.654;10.494;2024-01-10T05:22:54;19.92;;;7.95;;
85118;SDS011;75469;47.654;10.494;2024-01-10T05:25:23;19.92;;;8.73;;
85118;SDS011;75469;47.654;10.494;2024-01-10T05:27:49;21.23;;;8.70;;
85118;SDS011;75469;47.654;10.494;2024-01-10T05:30:15;23.90;;;8.98;;
85118;SDS011;75469;47.654;10.494;2024-01-10T05:32:43;20.50;;;8.43;;
85118;SDS011;75469;47.654;10.494;2024-01-10T05:35:09;21.23;;;8.70;;
85118;SDS011;75469;47.654;10.494;2024-01-10T05:37:35;21.30;;;8.63;;
85118;SDS011;75469;47.654;10.494;2024-01-10T05:40:02;20.48;;;8.25;;
85118;SDS011;75469;47.654;10.494;2024-01-10T05:42:29;26.92;;;9.73;;
85118;SDS011;75469;47.654;10.494;2024-01-10T05:44:55;19.08;;;8.18;;
85118;SDS011;75469;47.654;10.494;2024-01-10T05:47:21;18.48;;;7.70;;
85118;SDS011;75469;47.654;10.494;2024-01-10T05:49:46;17.15;;;7.55;;
85118;SDS011;75469;47.654;10.494;2024-01-10T05:52:12;16.48;;;6.90;;
85118;SDS011;75469;47.654;10.494;2024-01-10T05:54:38;20.90;;;8.32;;
85118;SDS011;75469;47.654;10.494;2024-01-10T05:57:04;17.63;;;7.05;;
85118;SDS011;75469;47.654;10.494;2024-01-10T05:59:29;19.55;;;7.65;;
85118;SDS011;75469;47.654;10.494;2024-01-10T06:01:56;16.25;;;6.38;;
85118;SDS011;75469;47.654;10.494;2024-01-10T06:04:23;19.98;;;7.10;;
85118;SDS011;75469;47.654;10.494;2024-01-10T06:06:49;18.38;;;6.72;;
85118;SDS011;75469;47.654;10.494;2024-01-10T06:09:15;18.88;;;6.78;;
85118;SDS011;75469;47.654;10.494;2024-01-10T06:11:47;14.15;;;5.72;;
85118;SDS011;75469;47.654;10.494;2024-01-10T06:14:12;16.48;;;5.75;;
85118;SDS011;75469;47.654;10.494;2024-01-10T06:16:38;14.80;;;6.28;;
85118;SDS011;75469;47.654;10.494;2024-01-10T06:19:03;15.00;;;6.07;;
85118;SDS011;75469;47.654;10.494;2024-01-10T06:21:29;13.18;;;6.38;;
85118;SDS011;75469;47.654;10.494;2024-01-10T06:23:54;13.07;;;6.22;;
85118;SDS011;75469;47.654;10.494;2024-01-10T06:26:20;19.17;;;6.72;;
85118;SDS011;75469;47.654;10.494;2024-01-10T06:28:47;12.88;;;5.50;;
85118;SDS011;75469;47.654;10.494;2024-01-10T06:31:13;14.00;;;6.75;;
85118;SDS011;75469;47.654;10.494;2024-01-10T06:33:38;15.23;;;6.68;;
85118;SDS011;75469;47.654;10.494;2024-01-10T06:36:04;15.15;;;6.32;;
85118;SDS011;75469;47.654;10.494;2024-01-10T06:38:30;14.25;;;6.93;;
85118;SDS011;75469;47.654;10.494;2024-01-10T06:40:56;13.68;;;6.03;;
85118;SDS011;75469;47.654;10.494;2024-01-10T06:43:21;16.73;;;6.57;;
85118;SDS011;75469;47.654;10.494;2024-01-10T06:45:47;12.68;;;6.20;;
85118;SDS011;75469;47.654;10.494;2024-01-10T06:48:13;17.80;;;6.65;;
85118;SDS011;75469;47.654;10.494;2024-01-10T06:50:39;15.38;;;6.15;;
85118;SDS011;75469;47.654;10.494;2024-01-10T06:53:05;13.35;;;6.07;;
85118;SDS011;75469;47.654;10.494;2024-01-10T06:55:31;13.18;;;5.70;;
85118;SDS011;75469;47.654;10.494;2024-01-10T06:57:56;11.13;;;5.35;;
85118;SDS011;75469;47.654;10.494;2024-01-10T07:00:22;16.77;;;6.45;;
85118;SDS011;75469;47.654;10.494;2024-01-10T07:02:48;15.63;;;5.32;;
85118;SDS011;75469;47.654;10.494;2024-01-10T07:05:14;12.65;;;6.10;;
85118;SDS011;75469;47.654;10.494;2024-01-10T07:07:41;14.73;;;5.63;;
85118;SDS011;75469;47.654;10.494;2024-01-10T07:10:07;13.00;;;5.68;;
85118;SDS011;75469;47.654;10.494;2024-01-10T07:12:33;18.38;;;6.07;;
85118;SDS011;75469;47.654;10.494;2024-01-10T07:14:59;16.25;;;5.97;;
85118;SDS011;75469;47.654;10.494;2024-01-10T07:17:28;14.35;;;6.47;;
85118;SDS011;75469;47.654;10.494;2024-01-10T07:19:53;14.65;;;5.20;;
85118;SDS011;75469;47.654;10.494;2024-01-10T07:22:22;11.10;;;5.05;;
85118;SDS011;75469;47.654;10.494;2024-01-10T07:24:48;12.77;;;4.50;;
85118;SDS011;75469;47.654;10.494;2024-01-10T07:27:14;13.27;;;4.70;;
85118;SDS011;75469;47.654;10.494;2024-01-10T07:29:40;10.80;;;4.75;;
85118;SDS011;75469;47.654;10.494;2024-01-10T07:32:06;11.80;;;5.18;;
85118;SDS011;75469;47.654;10.494;2024-01-10T07:34:38;12.52;;;4.80;;
85118;SDS011;75469;47.654;10.494;2024-01-10T07:37:04;11.05;;;5.07;;
85118;SDS011;75469;47.654;10.494;2024-01-10T07:39:30;10.45;;;4.40;;
85118;SDS011;75469;47.654;10.494;2024-01-10T07:41:56;10.93;;;5.13;;
85118;SDS011;75469;47.654;10.494;2024-01-10T07:44:21;11.55;;;5.20;;
85118;SDS011;75469;47.654;10.494;2024-01-10T07:46:47;11.45;;;4.80;;
85118;SDS011;75469;47.654;10.494;2024-01-10T07:49:12;12.32;;;4.43;;
85118;SDS011;75469;47.654;10.494;2024-01-10T07:51:38;12.05;;;4.50;;
85118;SDS011;75469;47.654;10.494;2024-01-10T07:54:03;12.00;;;4.88;;
85118;SDS011;75469;47.654;10.494;2024-01-10T07:56:30;9.40;;;4.45;;
85118;SDS011;75469;47.654;10.494;2024-01-10T07:58:55;8.57;;;4.05;;
85118;SDS011;75469;47.654;10.494;2024-01-10T08:01:21;12.50;;;4.22;;
85118;SDS011;75469;47.654;10.494;2024-01-10T08:03:47;8.00;;;3.75;;
85118;SDS011;75469;47.654;10.494;2024-01-10T08:06:12;12.18;;;3.95;;
85118;SDS011;75469;47.654;10.494;2024-01-10T08:08:38;8.38;;;4.07;;
85118;SDS011;75469;47.654;10.494;2024-01-10T08:11:04;8.57;;;3.78;;
85118;SDS011;75469;47.654;10.494;2024-01-10T08:13:30;8.20;;;3.22;;
85118;SDS011;75469;47.654;10.494;2024-01-10T08:15:56;8.05;;;3.58;;
85118;SDS011;75469;47.654;10.494;2024-01-10T08:18:22;7.20;;;3.40;;
85118;SDS011;75469;47.654;10.494;2024-01-10T08:20:48;8.85;;;3.45;;
85118;SDS011;75469;47.654;10.494;2024-01-10T08:23:14;6.55;;;3.03;;
85118;SDS011;75469;47.654;10.494;2024-01-10T08:25:39;7.50;;;3.20;;
85118;SDS011;75469;47.654;10.494;2024-01-10T08:28:06;5.53;;;2.97;;
85118;SDS011;75469;47.654;10.494;2024-01-10T08:30:31;8.23;;;3.60;;
85118;SDS011;75469;47.654;10.494;2024-01-10T08:32:57;6.95;;;3.53;;
85118;SDS011;75469;47.654;10.494;2024-01-10T08:35:24;5.53;;;3.10;;
85118;SDS011;75469;47.654;10.494;2024-01-10T08:37:50;6.15;;;3.08;;
85118;SDS011;75469;47.654;10.494;2024-01-10T08:40:18;6.65;;;3.33;;
85118;SDS011;75469;47.654;10.494;2024-01-10T08:42:46;7.32;;;3.22;;
85118;SDS011;75469;47.654;10.494;2024-01-10T08:45:11;6.68;;;2.88;;
85118;SDS011;75469;47.654;10.494;2024-01-10T08:47:37;7.55;;;3.28;;
85118;SDS011;75469;47.654;10.494;2024-01-10T08:50:03;10.00;;;3.28;;
85118;SDS011;75469;47.654;10.494;2024-01-10T08:52:35;6.70;;;3.38;;
85118;SDS011;75469;47.654;10.494;2024-01-10T08:55:07;6.43;;;3.20;;
85118;SDS011;75469;47.654;10.494;2024-01-10T08:57:33;6.18;;;3.25;;
85118;SDS011;75469;47.654;10.494;2024-01-10T08:59:58;6.38;;;3.13;;
85118;SDS011;75469;47.654;10.494;2024-01-10T09:02:25;6.40;;;3.25;;
85118;SDS011;75469;47.654;10.494;2024-01-10T09:04:52;5.97;;;2.55;;
85118;SDS011;75469;47.654;10.494;2024-01-10T09:07:18;8.65;;;3.20;;
85118;SDS011;75469;47.654;10.494;2024-01-10T09:09:45;6.00;;;3.20;;
85118;SDS011;75469;47.654;10.494;2024-01-10T09:12:10;6.45;;;2.83;;
85118;SDS011;75469;47.654;10.494;2024-01-10T09:14:36;5.63;;;3.22;;
85118;SDS011;75469;47.654;10.494;2024-01-10T09:17:01;5.25;;;2.83;;
85118;SDS011;75469;47.654;10.494;2024-01-10T09:19:28;7.28;;;3.25;;
85118;SDS011;75469;47.654;10.494;2024-01-10T09:21:55;5.88;;;3.08;;
85118;SDS011;75469;47.654;10.494;2024-01-10T09:24:22;4.50;;;2.53;;
85118;SDS011;75469;47.654;10.494;2024-01-10T09:26:51;6.47;;;2.85;;
85118;SDS011;75469;47.654;10.494;2024-01-10T09:29:17;6.32;;;2.95;;
85118;SDS011;75469;47.654;10.494;2024-01-10T09:31:42;5.43;;;2.88;;
85118;SDS011;75469;47.654;10.494;2024-01-10T09:34:08;6.60;;;3.58;;
85118;SDS011;75469;47.654;10.494;2024-01-10T09:36:34;7.45;;;3.75;;
85118;SDS011;75469;47.654;10.494;2024-01-10T09:39:00;5.43;;;2.72;;
85118;SDS011;75469;47.654;10.494;2024-01-10T09:41:25;5.00;;;2.53;;
85118;SDS011;75469;47.654;10.494;2024-01-10T09:43:53;7.65;;;2.67;;
85118;SDS011;75469;47.654;10.494;2024-01-10T09:46:19;5.30;;;2.58;;
85118;SDS011;75469;47.654;10.494;2024-01-10T09:48:44;8.82;;;2.85;;
85118;SDS011;75469;47.654;10.494;2024-01-10T09:51:10;5.95;;;2.70;;
85118;SDS011;75469;47.654;10.494;2024-01-10T09:53:37;6.32;;;3.00;;
85118;SDS011;75469;47.654;10.494;2024-01-10T09:57:03;6.57;;;2.92;;
85118;SDS011;75469;47.654;10.494;2024-01-10T09:59:30;6.25;;;2.92;;
85118;SDS011;75469;47.654;10.494;2024-01-10T10:01:56;4.93;;;2.65;;
85118;SDS011;75469;47.654;10.494;2024-01-10T10:04:23;5.32;;;3.10;;
85118;SDS011;75469;47.654;10.494;2024-01-10T10:06:59;5.07;;;3.08;;
85118;SDS011;75469;47.654;10.494;2024-01-10T10:09:26;5.63;;;3.00;;
85118;SDS011;75469;47.654;10.494;2024-01-10T10:11:54;6.65;;;3.10;;
85118;SDS011;75469;47.654;10.494;2024-01-10T10:14:20;5.45;;;3.22;;
85118;SDS011;75469;47.654;10.494;2024-01-10T10:16:45;7.50;;;3.25;;
85118;SDS011;75469;47.654;10.494;2024-01-10T10:19:11;6.05;;;2.60;;
85118;SDS011;75469;47.654;10.494;2024-01-10T10:21:38;5.35;;;2.85;;
85118;SDS011;75469;47.654;10.494;2024-01-10T10:24:04;5.70;;;2.13;;
85118;SDS011;75469;47.654;10.494;2024-01-10T10:26:31;5.63;;;2.83;;
85118;SDS011;75469;47.654;10.494;2024-01-10T10:28:58;5.15;;;2.63;;
85118;SDS011;75469;47.654;10.494;2024-01-10T10:31:24;7.07;;;2.90;;
85118;SDS011;75469;47.654;10.494;2024-01-10T10:33:50;5.43;;;2.80;;
85118;SDS011;75469;47.654;10.494;2024-01-10T10:36:17;5.07;;;2.38;;
85118;SDS011;75469;47.654;10.494;2024-01-10T10:38:43;6.07;;;1.90;;
85118;SDS011;75469;47.654;10.494;2024-01-10T10:41:08;3.67;;;2.08;;
85118;SDS011;75469;47.654;10.494;2024-01-10T10:43:37;4.97;;;2.50;;
85118;SDS011;75469;47.654;10.494;2024-01-10T10:46:05;4.88;;;2.60;;
85118;SDS011;75469;47.654;10.494;2024-01-10T10:51:05;5.18;;;2.60;;
85118;SDS011;75469;47.654;10.494;2024-01-10T10:53:37;4.65;;;2.40;;
85118;SDS011;75469;47.654;10.494;2024-01-10T10:56:05;4.30;;;2.35;;
85118;SDS011;75469;47.654;10.494;2024-01-10T10:58:36;4.60;;;2.67;;
85118;SDS011;75469;47.654;10.494;2024-01-10T11:01:08;5.05;;;2.45;;
85118;SDS011;75469;47.654;10.494;2024-01-10T11:03:37;4.95;;;2.10;;
85118;SDS011;75469;47.654;10.494;2024-01-10T11:06:05;4.88;;;2.25;;
85118;SDS011;75469;47.654;10.494;2024-01-10T11:08:42;4.90;;;2.40;;
85118;SDS011;75469;47.654;10.494;2024-01-10T11:11:23;4.65;;;2.13;;
85118;SDS011;75469;47.654;10.494;2024-01-10T11:22:21;3.13;;;2.00;;
85118;SDS011;75469;47.654;10.494;2024-01-10T11:25:10;3.70;;;2.03;;
85118;SDS011;75469;47.654;10.494;2024-01-10T11:27:36;4.97;;;2.17;;
85118;SDS011;75469;47.654;10.494;2024-01-10T11:30:02;3.80;;;2.13;;
85118;SDS011;75469;47.654;10.494;2024-01-10T11:32:30;5.28;;;2.25;;
85118;SDS011;75469;47.654;10.494;2024-01-10T11:34:59;3.67;;;2.08;;
85118;SDS011;75469;47.654;10.494;2024-01-10T11:37:38;4.68;;;1.98;;
85118;SDS011;75469;47.654;10.494;2024-01-10T11:40:07;3.05;;;1.88;;
85118;SDS011;75469;47.654;10.494;2024-01-10T11:42:43;3.45;;;2.17;;
85118;SDS011;75469;47.654;10.494;2024-01-10T11:45:56;5.10;;;1.90;;
85118;SDS011;75469;47.654;10.494;2024-01-10T11:47:59;3.03;;;2.03;;
85118;SDS011;75469;47.654;10.494;2024-01-10T11:50:24;4.32;;;2.13;;
85118;SDS011;75469;47.654;10.494;2024-01-10T11:52:54;4.88;;;2.20;;
85118;SDS011;75469;47.654;10.494;2024-01-10T11:58:16;3.35;;;1.90;;
85118;SDS011;75469;47.654;10.494;2024-01-10T12:00:42;4.55;;;2.03;;
85118;SDS011;75469;47.654;10.494;2024-01-10T12:03:07;3.60;;;1.73;;
85118;SDS011;75469;47.654;10.494;2024-01-10T12:05:34;3.30;;;1.90;;
85118;SDS011;75469;47.654;10.494;2024-01-10T12:08:00;4.43;;;2.50;;
85118;SDS011;75469;47.654;10.494;2024-01-10T12:10:31;3.92;;;2.13;;
85118;SDS011;75469;47.654;10.494;2024-01-10T12:13:01;5.05;;;2.50;;
85118;SDS011;75469;47.654;10.494;2024-01-10T12:15:28;5.07;;;2.58;;
85118;SDS011;75469;47.654;10.494;2024-01-10T12:17:54;4.20;;;2.22;;
85118;SDS011;75469;47.654;10.494;2024-01-10T12:20:20;5.00;;;2.20;;
85118;SDS011;75469;47.654;10.494;2024-01-10T12:22:45;3.40;;;2.38;;
85118;SDS011;75469;47.654;10.494;2024-01-10T12:25:11;4.38;;;2.50;;
85118;SDS011;75469;47.654;10.494;2024-01-10T12:27:37;5.57;;;2.22;;
85118;SDS011;75469;47.654;10.494;2024-01-10T12:30:03;4.93;;;2.40;;
85118;SDS011;75469;47.654;10.494;2024-01-10T12:32:30;4.05;;;2.22;;
85118;SDS011;75469;47.654;10.494;2024-01-10T12:35:03;3.25;;;1.90;;
85118;SDS011;75469;47.654;10.494;2024-01-10T12:37:30;4.57;;;2.55;;
85118;SDS011;75469;47.654;10.494;2024-01-10T12:39:56;2.85;;;1.90;;
85118;SDS011;75469;47.654;10.494;2024-01-10T12:42:22;3.65;;;1.85;;
85118;SDS011;75469;47.654;10.494;2024-01-10T12:44:49;3.15;;;1.55;;
85118;SDS011;75469;47.654;10.494;2024-01-10T12:47:21;3.08;;;1.95;;
85118;SDS011;75469;47.654;10.494;2024-01-10T12:49:48;3.97;;;1.75;;
85118;SDS011;75469;47.654;10.494;2024-01-10T12:52:14;4.25;;;2.10;;
85118;SDS011;75469;47.654;10.494;2024-01-10T12:54:40;4.28;;;2.45;;
85118;SDS011;75469;47.654;10.494;2024-01-10T12:57:06;4.22;;;2.65;;
85118;SDS011;75469;47.654;10.494;2024-01-10T12:59:35;6.00;;;3.20;;
85118;SDS011;75469;47.654;10.494;2024-01-10T13:02:00;6.25;;;3.30;;
85118;SDS011;75469;47.654;10.494;2024-01-10T13:04:26;5.97;;;3.45;;
85118;SDS011;75469;47.654;10.494;2024-01-10T13:06:52;8.20;;;3.40;;
85118;SDS011;75469;47.654;10.494;2024-01-10T13:09:17;8.80;;;4.45;;
85118;SDS011;75469;47.654;10.494;2024-01-10T13:11:43;9.43;;;4.88;;
85118;SDS011;75469;47.654;10.494;2024-01-10T13:14:10;9.43;;;4.47;;
85118;SDS011;75469;47.654;10.494;2024-01-10T13:16:37;11.88;;;5.95;;
85118;SDS011;75469;47.654;10.494;2024-01-10T13:19:03;15.35;;;7.75;;
85118;SDS011;75469;47.654;10.494;2024-01-10T13:21:28;14.23;;;7.13;;
85118;SDS011;75469;47.654;10.494;2024-01-10T13:23:54;15.95;;;7.68;;
85118;SDS011;75469;47.654;10.494;2024-01-10T13:26:20;17.13;;;7.43;;
85118;SDS011;75469;47.654;10.494;2024-01-10T13:28:46;17.40;;;8.40;;
85118;SDS011;75469;47.654;10.494;2024-01-10T13:31:11;18.95;;;7.82;;
85118;SDS011;75469;47.654;10.494;2024-01-10T13:33:37;20.42;;;9.18;;
85118;SDS011;75469;47.654;10.494;2024-01-10T13:36:06;21.60;;;7.57;;
85118;SDS011;75469;47.654;10.494;2024-01-10T13:38:32;23.42;;;9.05;;
85118;SDS011;75469;47.654;10.494;2024-01-10T13:40:57;22.17;;;9.45;;
85118;SDS011;75469;47.654;10.494;2024-01-10T13:43:23;20.48;;;9.35;;
85118;SDS011;75469;47.654;10.494;2024-01-10T13:45:49;19.98;;;9.10;;
85118;SDS011;75469;47.654;10.494;2024-01-10T13:48:14;21.83;;;9.00;;
85118;SDS011;75469;47.654;10.494;2024-01-10T13:50:41;24.60;;;9.45;;
85118;SDS011;75469;47.654;10.494;2024-01-10T13:53:06;23.23;;;10.10;;
85118;SDS011;75469;47.654;10.494;2024-01-10T13:55:32;26.17;;;10.65;;
85118;SDS011;75469;47.654;10.494;2024-01-10T13:57:58;25.83;;;9.75;;
85118;SDS011;75469;47.654;10.494;2024-01-10T14:00:24;23.10;;;9.85;;
85118;SDS011;75469;47.654;10.494;2024-01-10T14:02:49;29.10;;;10.38;;
85118;SDS011;75469;47.654;10.494;2024-01-10T14:05:15;36.35;;;11.07;;
85118;SDS011;75469;47.654;10.494;2024-01-10T14:07:40;27.52;;;10.50;;
85118;SDS011;75469;47.654;10.494;2024-01-10T14:10:10;27.13;;;11.45;;
85118;SDS011;75469;47.654;10.494;2024-01-10T14:12:36;20.67;;;9.02;;
85118;SDS011;75469;47.654;10.494;2024-01-10T14:15:02;25.15;;;8.60;;
85118;SDS011;75469;47.654;10.494;2024-01-10T14:17:29;46.75;;;10.38;;
85118;SDS011;75469;47.654;10.494;2024-01-10T14:19:55;20.60;;;9.20;;
85118;SDS011;75469;47.654;10.494;2024-01-10T14:22:20;25.15;;;9.63;;
85118;SDS011;75469;47.654;10.494;2024-01-10T14:24:46;44.05;;;10.32;;
85118;SDS011;75469;47.654;10.494;2024-01-10T14:27:12;28.88;;;9.23;;
85118;SDS011;75469;47.654;10.494;2024-01-10T14:29:38;25.90;;;9.82;;
85118;SDS011;75469;47.654;10.494;2024-01-10T14:32:04;42.47;;;9.30;;
85118;SDS011;75469;47.654;10.494;2024-01-10T14:34:29;29.55;;;8.05;;